Portada
METAR-TAF:

METAR-TAF

Aeropuertos :

Aeropuerto Internacional Salgado Filho

Porto Alegre, Río Grande del Sur, Brasil

latitud: 30-00S, longitud: 051-11W, altitud: 3 m

Observación

El informe se hizo hace 55 minutos, a las 08:00 UTC
Viento 8 kt del este-sureste
Temperatura 23°C
Humedad 83%
Presión 1012 hPa
Visibilidad 10 km o más
Escasas nubes a una altura de 3100 ft

METAR: SBPA 180800Z 11008KT 9999 FEW031 23/20 Q1012

Hora: 05:55 (08:55 UTC)

Pronóstico

El informe se hizo hace 7 horas y 25 minutos, a las 01:30 UTC
Pronóstico válido del 18 a las 06 UTC al 19 a las 06 UTC
Viento 6 kt del este-sureste
Visibilidad 10 km o más
Nubes dispersas a una altura de 3500 ft
Evolucionando progresivamente
del 18 a las 18 UTC al 18 a las 20 UTC
Viento 10 kt del este
Visibilidad 10 km o más
sin nubes por debajo de 1500 m y sin presencia de cumulonimbus.

TAF: SBPA 180130Z 1806/1906 11006KT 9999 SCT035 TN21/1808Z TX29/1818Z BECMG 1818/1820 10010KT CAVOK RMK PEB

Observaciones y pronósticos meteorológicos de más de 4000 aeropuertos (mensajes METAR y TAF).

Los puntos amarillos y rojos representan las estaciones disponibles.

Ponga el ratón en el punto deseado para ver el nombre de la estación.

Haga clic para ver las observaciones y los pronósticos meteorológicos.

Para cambiar el mapa : haga clic en los botones verdes con una cruz de color negro para hacer un zoom, en el botón verde con un guión para alejar o en las flechas verdes para mapas adyacentes.


METAR-TAF: